createdAt,value
2023-11-21T00:01:05.445Z,9.75
2023-11-21T00:03:32.883Z,9.73
2023-11-21T00:05:59.593Z,9.82
2023-11-21T00:08:26.064Z,9.80
2023-11-21T00:10:52.825Z,9.81
2023-11-21T00:13:19.509Z,9.78
2023-11-21T00:15:46.080Z,9.80
2023-11-21T00:18:12.893Z,9.80
2023-11-21T00:20:39.459Z,9.79
2023-11-21T00:23:06.062Z,9.76
2023-11-21T00:25:32.920Z,9.73
2023-11-21T00:28:00.540Z,9.70
2023-11-21T00:30:27.051Z,9.71
2023-11-21T00:32:53.655Z,9.67
2023-11-21T00:35:20.155Z,9.66
2023-11-21T00:37:46.712Z,9.64
2023-11-21T00:40:13.835Z,9.67
2023-11-21T00:42:40.457Z,9.69
2023-11-21T00:45:08.098Z,9.71
2023-11-21T00:47:34.792Z,9.74
2023-11-21T00:50:01.527Z,9.69
2023-11-21T00:52:28.293Z,9.68
2023-11-21T00:54:54.801Z,9.65
2023-11-21T00:57:21.271Z,9.66
2023-11-21T00:59:47.791Z,9.63
2023-11-21T01:02:14.336Z,9.60
2023-11-21T01:04:40.846Z,9.67
2023-11-21T01:07:07.405Z,9.65
2023-11-21T01:09:34.097Z,9.65
2023-11-21T01:12:01.093Z,9.62
2023-11-21T01:14:28.626Z,9.61
2023-11-21T01:16:55.447Z,9.61
2023-11-21T01:19:22.080Z,9.63
2023-11-21T01:21:48.663Z,9.61
2023-11-21T01:24:15.105Z,9.57
2023-11-21T01:26:41.719Z,9.57
2023-11-21T01:29:08.500Z,9.60
2023-11-21T01:31:35.230Z,9.65
2023-11-21T01:34:01.926Z,9.63
2023-11-21T01:36:33.549Z,9.62
2023-11-21T01:39:00.942Z,9.59
2023-11-21T01:41:28.402Z,9.58
2023-11-21T01:43:55.475Z,9.62
2023-11-21T01:46:23.547Z,9.60
2023-11-21T01:48:50.453Z,9.65
2023-11-21T01:51:17.881Z,9.62
2023-11-21T01:53:46.480Z,9.61
2023-11-21T01:56:13.697Z,9.56
2023-11-21T01:58:41.226Z,9.58
2023-11-21T02:01:07.849Z,9.61
2023-11-21T02:03:34.470Z,9.63
2023-11-21T02:06:01.359Z,9.62
2023-11-21T02:08:28.061Z,9.61
2023-11-21T02:10:54.588Z,9.58
2023-11-21T02:13:21.193Z,9.55
2023-11-21T02:15:48.666Z,9.56
2023-11-21T02:18:16.902Z,9.57
2023-11-21T02:20:43.909Z,9.60
2023-11-21T02:23:10.392Z,9.62
2023-11-21T02:25:38.367Z,9.60
2023-11-21T02:28:05.514Z,9.64
2023-11-21T02:30:35.087Z,9.70
2023-11-21T02:33:02.737Z,9.64
2023-11-21T02:35:29.617Z,9.61
2023-11-21T02:37:56.605Z,9.64
2023-11-21T02:40:25.733Z,9.61
2023-11-21T02:42:52.471Z,9.64
2023-11-21T02:45:21.895Z,9.63
2023-11-21T02:47:48.475Z,9.70
2023-11-21T02:50:14.950Z,9.71
2023-11-21T02:52:41.492Z,9.75
2023-11-21T02:55:11.043Z,9.74
2023-11-21T02:57:37.566Z,9.75
2023-11-21T03:00:04.734Z,9.70
2023-11-21T03:02:31.362Z,9.68
2023-11-21T03:04:57.980Z,9.66
2023-11-21T03:07:24.589Z,9.66
2023-11-21T03:09:51.522Z,9.67
2023-11-21T03:12:18.180Z,9.72
2023-11-21T03:14:44.637Z,9.76
2023-11-21T03:17:11.082Z,9.78
2023-11-21T03:19:37.574Z,9.80
2023-11-21T03:22:05.294Z,9.76
2023-11-21T03:24:32.043Z,9.70
2023-11-21T03:26:58.515Z,9.66
2023-11-21T03:29:24.952Z,9.62
2023-11-21T03:31:52.231Z,9.62
2023-11-21T03:34:29.833Z,9.58
2023-11-21T03:36:56.485Z,9.58
2023-11-21T03:39:23.665Z,9.58
2023-11-21T03:41:50.329Z,9.56
2023-11-21T03:44:16.841Z,9.56
2023-11-21T03:46:43.326Z,9.52
2023-11-21T03:49:09.843Z,9.53
2023-11-21T03:51:36.295Z,9.53
2023-11-21T03:54:02.878Z,9.58
2023-11-21T03:56:29.346Z,9.59
2023-11-21T03:58:55.807Z,9.56
2023-11-21T04:01:25.890Z,9.61
2023-11-21T04:03:52.867Z,9.68
2023-11-21T04:06:19.508Z,9.68
2023-11-21T04:08:46.824Z,9.73
2023-11-21T04:11:13.678Z,9.74
2023-11-21T04:13:41.152Z,9.75
2023-11-21T04:16:08.750Z,9.77
2023-11-21T04:18:37.899Z,9.76
2023-11-21T04:21:08.796Z,9.71
2023-11-21T04:23:36.327Z,9.70
2023-11-21T04:26:03.985Z,9.75
2023-11-21T04:28:30.586Z,9.75
2023-11-21T04:30:57.461Z,9.74
2023-11-21T04:33:24.018Z,9.72
2023-11-21T04:35:50.573Z,9.67
2023-11-21T04:38:17.089Z,9.65
2023-11-21T04:40:43.608Z,9.70
2023-11-21T04:43:10.214Z,9.64
2023-11-21T04:45:36.726Z,9.54
2023-11-21T04:48:03.608Z,9.52
2023-11-21T04:50:30.133Z,9.60
2023-11-21T04:52:56.599Z,9.58
2023-11-21T04:55:23.185Z,9.56
2023-11-21T04:57:49.665Z,9.57
2023-11-21T05:00:17.246Z,9.58
2023-11-21T05:02:45.705Z,9.55
2023-11-21T05:05:13.278Z,9.53
2023-11-21T05:07:43.787Z,9.59
2023-11-21T05:10:13.433Z,9.58
2023-11-21T05:12:41.555Z,9.64
2023-11-21T05:15:12.549Z,9.66
2023-11-21T05:17:45.752Z,9.61
2023-11-21T05:20:15.019Z,9.56
2023-11-21T05:22:43.053Z,9.47
2023-11-21T05:25:09.969Z,9.43
2023-11-21T05:27:36.925Z,9.43
2023-11-21T05:30:12.948Z,9.49
2023-11-21T05:32:39.807Z,9.43
2023-11-21T05:35:12.963Z,9.38
2023-11-21T05:37:40.619Z,9.34
2023-11-21T05:40:08.756Z,9.30
2023-11-21T05:42:35.981Z,9.36
2023-11-21T05:45:11.384Z,9.36
2023-11-21T05:47:40.563Z,9.41
2023-11-21T05:50:13.721Z,9.43
2023-11-21T05:52:41.219Z,9.41
2023-11-21T05:55:08.979Z,9.39
2023-11-21T05:57:38.977Z,9.37
2023-11-21T06:00:12.142Z,9.36
2023-11-21T06:02:41.666Z,9.33
2023-11-21T06:05:09.535Z,9.40
2023-11-21T06:07:36.640Z,9.42
2023-11-21T06:10:07.619Z,9.41
2023-11-21T06:12:36.671Z,9.41
2023-11-21T06:15:06.124Z,9.38
2023-11-21T06:17:32.819Z,9.40
2023-11-21T06:19:59.406Z,9.40
2023-11-21T06:22:25.874Z,9.41
2023-11-21T06:24:52.484Z,9.43
2023-11-21T06:27:19.285Z,9.41
2023-11-21T06:29:45.826Z,9.38
2023-11-21T06:32:12.275Z,9.38
2023-11-21T06:34:39.160Z,9.42
2023-11-21T06:37:05.627Z,9.39
2023-11-21T06:39:32.066Z,9.36
2023-11-21T06:42:00.722Z,9.36
2023-11-21T06:44:27.185Z,9.35
2023-11-21T06:46:53.816Z,9.36
2023-11-21T06:49:20.471Z,9.39
2023-11-21T06:51:46.897Z,9.47
2023-11-21T06:54:13.385Z,9.49
2023-11-21T06:56:40.198Z,9.47
2023-11-21T06:59:06.813Z,9.52
2023-11-21T07:01:39.892Z,9.53
2023-11-21T07:04:07.608Z,9.55
2023-11-21T07:06:34.210Z,9.58
2023-11-21T07:09:02.233Z,9.58
2023-11-21T07:11:28.745Z,9.59
2023-11-21T07:13:55.211Z,9.57
2023-11-21T07:16:22.190Z,9.56
2023-11-21T07:18:50.257Z,9.57
2023-11-21T07:21:17.170Z,9.59
2023-11-21T07:23:43.701Z,9.58
2023-11-21T07:26:10.302Z,9.61
2023-11-21T07:28:36.881Z,9.63
2023-11-21T07:31:04.437Z,9.66
2023-11-21T07:33:31.158Z,9.70
2023-11-21T07:35:57.613Z,9.73
2023-11-21T07:38:24.252Z,9.76
2023-11-21T07:40:50.705Z,9.79
2023-11-21T07:43:17.293Z,9.80
2023-11-21T07:45:46.179Z,9.82
2023-11-21T07:48:14.044Z,9.86
2023-11-21T07:50:40.534Z,9.84
2023-11-21T07:53:07.182Z,9.83
2023-11-21T07:55:34.373Z,9.82
2023-11-21T07:58:01.052Z,9.88
2023-11-21T08:00:31.163Z,9.90
2023-11-21T08:02:57.767Z,9.88
2023-11-21T08:05:28.394Z,9.89
2023-11-21T08:08:01.399Z,9.93
2023-11-21T08:10:27.929Z,9.96
2023-11-21T08:12:54.612Z,9.96
2023-11-21T08:15:21.375Z,10.01
2023-11-21T08:17:49.364Z,10.04
2023-11-21T08:20:19.177Z,10.12
2023-11-21T08:22:46.362Z,10.16
2023-11-21T08:25:13.712Z,10.21
2023-11-21T08:27:40.232Z,10.24
2023-11-21T08:30:08.366Z,10.26
2023-11-21T08:32:34.858Z,10.25
2023-11-21T08:35:02.605Z,10.27
2023-11-21T08:37:31.207Z,10.31
2023-11-21T08:40:00.792Z,10.29
2023-11-21T08:42:28.799Z,10.26
2023-11-21T08:44:55.271Z,10.26
2023-11-21T08:47:21.763Z,10.29
2023-11-21T08:49:48.704Z,10.27
2023-11-21T08:52:15.196Z,10.33
2023-11-21T08:54:42.317Z,10.37
2023-11-21T08:57:09.919Z,10.36
2023-11-21T08:59:36.444Z,10.32
2023-11-21T09:02:02.960Z,10.36
2023-11-21T09:04:29.558Z,10.35
2023-11-21T09:06:56.113Z,10.33
2023-11-21T09:09:22.573Z,10.36
2023-11-21T09:11:50.299Z,10.35
2023-11-21T09:14:17.180Z,10.33
2023-11-21T09:16:44.215Z,10.29
2023-11-21T09:19:10.701Z,10.36
2023-11-21T09:21:37.176Z,10.42
2023-11-21T09:24:04.096Z,10.44
2023-11-21T09:26:31.083Z,10.43
2023-11-21T09:28:57.764Z,10.43
2023-11-21T09:31:25.474Z,10.43
2023-11-21T09:33:52.060Z,10.43
2023-11-21T09:36:19.291Z,10.44
2023-11-21T09:38:45.744Z,10.47
2023-11-21T09:41:28.596Z,10.45
2023-11-21T09:44:01.856Z,10.43
2023-11-21T09:46:29.236Z,10.51
2023-11-21T09:49:00.235Z,10.49
2023-11-21T09:54:22.811Z,10.55
2023-11-21T09:56:51.204Z,10.53
2023-11-21T09:59:17.791Z,10.57
2023-11-21T10:01:44.501Z,10.58
2023-11-21T10:04:13.923Z,10.60
2023-11-21T10:06:42.737Z,10.56
2023-11-21T10:09:13.489Z,10.62
2023-11-21T10:11:42.449Z,10.66
2023-11-21T10:14:13.714Z,10.71
2023-11-21T10:16:41.842Z,10.68
2023-11-21T10:19:12.305Z,10.72
2023-11-21T10:21:40.105Z,10.72
2023-11-21T10:24:07.379Z,10.79
2023-11-21T10:26:47.148Z,10.75
2023-11-21T10:29:22.480Z,10.84
2023-11-21T10:31:52.768Z,10.89
2023-11-21T10:34:21.499Z,10.96
2023-11-21T10:36:48.208Z,10.99
2023-11-21T10:39:20.172Z,11.05
2023-11-21T10:41:47.790Z,11.09
2023-11-21T10:44:22.560Z,11.12
2023-11-21T10:46:56.837Z,11.16
2023-11-21T10:49:28.424Z,11.15
2023-11-21T10:51:55.903Z,11.14
2023-11-21T10:54:24.386Z,11.22
2023-11-21T10:56:54.244Z,11.32
2023-11-21T10:59:22.310Z,11.31
2023-11-21T11:01:50.988Z,11.31
2023-11-21T11:04:19.868Z,11.40
2023-11-21T11:06:57.470Z,11.42
2023-11-21T11:09:24.730Z,11.46
2023-11-21T11:11:52.580Z,11.42
2023-11-21T11:14:20.880Z,11.40
2023-11-21T11:16:50.396Z,11.44
2023-11-21T11:19:17.738Z,11.40
2023-11-21T11:21:59.461Z,11.46
2023-11-21T11:24:50.314Z,11.54
2023-11-21T11:27:31.667Z,11.54
2023-11-21T11:30:13.899Z,11.56
2023-11-21T11:33:07.202Z,11.59
2023-11-21T11:35:54.791Z,11.55
2023-11-21T11:38:24.817Z,11.48
2023-11-21T11:40:55.694Z,11.48
2023-11-21T11:43:34.032Z,11.52
2023-11-21T11:46:05.084Z,11.58
2023-11-21T11:48:39.430Z,11.61
2023-11-21T11:51:22.232Z,11.58
2023-11-21T11:53:49.414Z,11.54
2023-11-21T11:56:29.983Z,11.55
2023-11-21T11:58:58.162Z,11.55
2023-11-21T12:01:27.155Z,11.54
2023-11-21T12:04:12.337Z,11.54
2023-11-21T12:06:38.877Z,11.59
2023-11-21T12:09:08.575Z,11.55
2023-11-21T12:11:36.541Z,11.49
2023-11-21T12:14:06.221Z,11.53
2023-11-21T12:16:34.015Z,11.56
2023-11-21T12:19:00.631Z,11.57
2023-11-21T12:21:27.878Z,11.61
2023-11-21T12:23:54.337Z,11.60
2023-11-21T12:26:24.904Z,11.61
2023-11-21T12:28:57.787Z,11.57
2023-11-21T12:31:25.216Z,11.58
2023-11-21T12:33:53.032Z,11.60
2023-11-21T12:36:20.207Z,11.50
2023-11-21T12:38:46.650Z,11.50
2023-11-21T12:41:13.153Z,11.55
2023-11-21T12:43:40.718Z,11.59
2023-11-21T12:46:12.014Z,11.67
2023-11-21T12:48:40.315Z,11.93
2023-11-21T12:51:07.773Z,12.16
2023-11-21T12:53:39.422Z,12.19
2023-11-21T12:56:10.925Z,12.39
2023-11-21T12:58:40.418Z,12.22
2023-11-21T13:01:12.618Z,12.61
2023-11-21T13:03:41.489Z,12.80
2023-11-21T13:06:11.180Z,12.64
2023-11-21T13:08:40.142Z,12.36
2023-11-21T13:11:07.431Z,12.00
2023-11-21T13:13:34.421Z,11.86
2023-11-21T13:16:05.293Z,11.71
2023-11-21T13:18:35.105Z,11.63
2023-11-21T13:21:13.509Z,11.67
2023-11-21T13:23:42.441Z,11.57
2023-11-21T13:26:10.241Z,11.48
2023-11-21T13:28:38.947Z,11.45
2023-11-21T13:31:35.902Z,11.49
2023-11-21T13:34:06.612Z,11.46
2023-11-21T13:36:37.178Z,11.43
2023-11-21T13:39:09.873Z,11.47
2023-11-21T13:41:39.172Z,11.44
2023-11-21T13:44:17.366Z,11.48
2023-11-21T13:46:45.158Z,11.46
2023-11-21T13:49:11.829Z,11.49
2023-11-21T13:51:47.040Z,11.48
2023-11-21T13:54:13.722Z,11.51
2023-11-21T13:56:42.246Z,11.50
2023-11-21T13:59:21.917Z,11.49
2023-11-21T14:01:57.243Z,11.52
2023-11-21T14:04:34.057Z,11.57
2023-11-21T14:07:11.726Z,11.59
2023-11-21T14:09:45.140Z,11.63
2023-11-21T14:12:14.150Z,11.64
2023-11-21T14:14:41.055Z,11.64
2023-11-21T14:17:08.407Z,11.62
2023-11-21T14:19:37.767Z,11.62
2023-11-21T14:22:04.369Z,11.63
2023-11-21T14:24:31.963Z,11.64
2023-11-21T14:26:58.552Z,11.63
2023-11-21T14:29:25.700Z,11.64
2023-11-21T14:31:54.664Z,11.60
2023-11-21T14:34:23.367Z,11.59
2023-11-21T14:36:50.865Z,11.58
2023-11-21T14:39:25.175Z,11.66
2023-11-21T14:41:54.189Z,11.65
2023-11-21T14:44:25.242Z,11.52
2023-11-21T14:46:52.453Z,11.48
2023-11-21T14:49:23.184Z,11.47
2023-11-21T14:52:04.786Z,11.47
2023-11-21T14:54:42.214Z,11.47
2023-11-21T14:57:17.504Z,11.44
2023-11-21T14:59:52.467Z,11.41
2023-11-21T15:02:23.705Z,11.38
2023-11-21T15:04:53.912Z,11.42
2023-11-21T15:07:20.428Z,11.44
2023-11-21T15:09:46.889Z,11.42
2023-11-21T15:12:16.971Z,11.39
2023-11-21T15:14:50.960Z,11.30
2023-11-21T15:17:32.137Z,11.24
2023-11-21T15:19:59.191Z,11.18
2023-11-21T15:22:26.844Z,11.14
2023-11-21T15:24:54.937Z,11.13
2023-11-21T15:27:22.255Z,11.02
2023-11-21T15:29:50.948Z,10.97
2023-11-21T15:32:17.509Z,10.93
2023-11-21T15:34:44.000Z,10.92
2023-11-21T15:37:12.667Z,10.93
2023-11-21T15:39:40.585Z,10.79
2023-11-21T15:42:08.569Z,10.77
2023-11-21T15:44:35.293Z,10.73
2023-11-21T15:47:05.002Z,10.68
2023-11-21T15:49:37.029Z,10.62
2023-11-21T15:52:07.416Z,10.60
2023-11-21T15:54:35.824Z,10.61
2023-11-21T15:57:04.029Z,10.54
2023-11-21T15:59:34.442Z,10.42
2023-11-21T16:02:02.203Z,10.38
2023-11-21T16:04:29.505Z,10.37
2023-11-21T16:06:56.360Z,10.34
2023-11-21T16:09:24.642Z,10.34
2023-11-21T16:12:01.775Z,10.30
2023-11-21T16:14:36.585Z,10.22
2023-11-21T16:17:04.211Z,10.22
2023-11-21T16:19:31.220Z,10.16
2023-11-21T16:21:57.882Z,10.11
2023-11-21T16:24:25.215Z,10.06
2023-11-21T16:26:51.688Z,10.03
2023-11-21T16:29:18.268Z,10.03
2023-11-21T16:31:45.458Z,10.00
2023-11-21T16:34:20.310Z,9.96
2023-11-21T16:36:47.557Z,9.81
2023-11-21T16:39:14.942Z,9.80
2023-11-21T16:41:42.628Z,9.86
2023-11-21T16:44:36.258Z,9.79
2023-11-21T16:47:06.642Z,9.74
2023-11-21T16:49:34.429Z,9.59
2023-11-21T16:52:04.069Z,9.46
2023-11-21T16:54:30.829Z,9.55
2023-11-21T16:56:57.344Z,9.59
2023-11-21T16:59:24.458Z,9.60
2023-11-21T17:01:51.124Z,9.60
2023-11-21T17:04:20.000Z,9.47
2023-11-21T17:06:48.115Z,9.42
2023-11-21T17:09:19.105Z,9.33
2023-11-21T17:11:49.740Z,9.29
2023-11-21T17:14:17.128Z,9.29
2023-11-21T17:16:45.532Z,9.26
2023-11-21T17:19:12.093Z,9.26
2023-11-21T17:21:38.631Z,9.06
2023-11-21T17:24:05.667Z,8.96
2023-11-21T17:26:32.404Z,8.84
2023-11-21T17:28:59.553Z,8.79
2023-11-21T17:31:26.114Z,8.71
2023-11-21T17:33:54.918Z,8.64
2023-11-21T17:36:22.208Z,8.77
2023-11-21T17:38:48.954Z,8.85
2023-11-21T17:41:20.629Z,8.78
2023-11-21T17:43:47.195Z,8.71
2023-11-21T17:46:20.166Z,8.91
2023-11-21T17:48:46.884Z,8.85
2023-11-21T17:51:13.325Z,8.78
2023-11-21T17:53:41.565Z,8.70
2023-11-21T17:56:08.004Z,8.65
2023-11-21T17:58:34.441Z,8.63
2023-11-21T18:01:00.989Z,8.62
2023-11-21T18:03:27.621Z,8.47
2023-11-21T18:05:55.063Z,8.42
2023-11-21T18:08:22.241Z,8.37
2023-11-21T18:10:48.842Z,8.34
2023-11-21T18:13:15.338Z,8.31
2023-11-21T18:15:41.833Z,8.25
2023-11-21T18:18:08.555Z,8.18
2023-11-21T18:20:35.395Z,8.13
2023-11-21T18:23:01.902Z,8.18
2023-11-21T18:25:30.002Z,8.24
2023-11-21T18:27:56.660Z,8.16
2023-11-21T18:30:23.089Z,8.11
2023-11-21T18:32:49.675Z,8.13
2023-11-21T18:35:16.472Z,8.28
2023-11-21T18:37:44.035Z,8.23
2023-11-21T18:40:10.787Z,8.14
2023-11-21T18:42:37.300Z,8.14
2023-11-21T18:45:04.080Z,8.25
2023-11-21T18:47:30.883Z,8.11
2023-11-21T18:49:58.776Z,8.14
2023-11-21T18:52:28.453Z,8.26
2023-11-21T18:54:54.981Z,8.31
2023-11-21T18:57:21.576Z,8.36
2023-11-21T18:59:48.040Z,8.46
2023-11-21T19:02:15.169Z,8.41
2023-11-21T19:04:42.118Z,8.31
2023-11-21T19:07:08.600Z,8.30
2023-11-21T19:09:36.448Z,8.30
2023-11-21T19:12:04.153Z,8.31
2023-11-21T19:14:30.697Z,8.17
2023-11-21T19:16:57.547Z,8.16
2023-11-21T19:19:24.218Z,8.07
2023-11-21T19:21:50.726Z,8.07
2023-11-21T19:24:19.892Z,8.08
2023-11-21T19:26:46.607Z,8.14
2023-11-21T19:29:13.135Z,8.20
2023-11-21T19:31:39.702Z,8.14
2023-11-21T19:34:06.248Z,8.08
2023-11-21T19:36:32.834Z,8.02
2023-11-21T19:38:59.260Z,8.04
2023-11-21T19:41:26.152Z,8.05
2023-11-21T19:43:52.825Z,8.06
2023-11-21T19:46:19.694Z,7.90
2023-11-21T19:48:47.121Z,7.85
2023-11-21T19:51:13.748Z,7.95
2023-11-21T19:53:40.486Z,7.97
2023-11-21T19:56:10.505Z,7.93
2023-11-21T19:58:37.917Z,7.81
2023-11-21T20:01:04.445Z,7.75
2023-11-21T20:03:31.524Z,7.63
2023-11-21T20:05:57.976Z,7.51
2023-11-21T20:08:24.527Z,7.32
2023-11-21T20:10:51.409Z,7.24
2023-11-21T20:13:18.293Z,7.27
2023-11-21T20:15:45.301Z,7.35
2023-11-21T20:18:12.879Z,7.40
2023-11-21T20:20:39.586Z,7.55
2023-11-21T20:23:08.119Z,7.62
2023-11-21T20:25:37.897Z,7.54
2023-11-21T20:28:05.333Z,7.35
2023-11-21T20:30:33.239Z,7.19
2023-11-21T20:32:59.893Z,7.14
2023-11-21T20:35:26.442Z,7.22
2023-11-21T20:37:52.997Z,7.23
2023-11-21T20:40:20.022Z,7.19
2023-11-21T20:42:47.925Z,7.26
2023-11-21T20:45:14.760Z,7.37
2023-11-21T20:47:43.567Z,7.46
2023-11-21T20:50:10.941Z,7.45
2023-11-21T20:52:37.640Z,7.30
2023-11-21T20:55:04.401Z,7.12
2023-11-21T20:57:30.881Z,6.98
2023-11-21T20:59:57.321Z,7.06
2023-11-21T21:02:24.014Z,7.15
2023-11-21T21:04:50.545Z,7.19
2023-11-21T21:07:17.046Z,6.97
2023-11-21T21:09:43.573Z,6.85
2023-11-21T21:12:12.444Z,6.94
2023-11-21T21:14:39.794Z,6.88
2023-11-21T21:17:06.946Z,6.79
2023-11-21T21:19:34.246Z,6.83
2023-11-21T21:22:01.008Z,6.81
2023-11-21T21:24:28.434Z,6.94
2023-11-21T21:26:54.928Z,6.91
2023-11-21T21:29:26.426Z,6.86
2023-11-21T21:31:53.912Z,6.87
2023-11-21T21:34:22.180Z,6.92
2023-11-21T21:36:49.391Z,6.83
2023-11-21T21:39:15.846Z,6.85
2023-11-21T21:41:42.361Z,6.79
2023-11-21T21:44:09.165Z,6.59
2023-11-21T21:46:36.082Z,6.59
2023-11-21T21:49:04.593Z,6.53
2023-11-21T21:51:32.092Z,6.62
2023-11-21T21:53:58.543Z,6.51
2023-11-21T21:56:25.686Z,6.65
2023-11-21T21:58:53.164Z,6.75
2023-11-21T22:01:19.902Z,6.77
2023-11-21T22:03:46.574Z,6.73
2023-11-21T22:06:13.676Z,6.78
2023-11-21T22:08:40.487Z,6.73
2023-11-21T22:11:07.835Z,6.52
2023-11-21T22:13:35.149Z,6.47
2023-11-21T22:16:03.062Z,6.43
2023-11-21T22:18:29.611Z,6.43
2023-11-21T22:20:56.509Z,6.35
2023-11-21T22:23:23.070Z,6.28
2023-11-21T22:25:49.736Z,6.27
2023-11-21T22:28:16.286Z,6.33
2023-11-21T22:30:42.807Z,6.43
2023-11-21T22:33:09.310Z,6.52
2023-11-21T22:35:35.867Z,6.55
2023-11-21T22:38:03.294Z,6.64
2023-11-21T22:40:29.779Z,6.64
2023-11-21T22:42:56.310Z,6.61
2023-11-21T22:45:23.865Z,6.65
2023-11-21T22:47:50.411Z,6.51
2023-11-21T22:50:17.022Z,6.57
2023-11-21T22:52:43.475Z,6.49
2023-11-21T22:55:10.042Z,6.45
2023-11-21T22:57:36.519Z,6.53
2023-11-21T23:00:08.180Z,6.53
2023-11-21T23:02:34.889Z,6.48
2023-11-21T23:05:03.337Z,6.45
2023-11-21T23:07:29.811Z,6.43
2023-11-21T23:09:56.237Z,6.43
2023-11-21T23:12:22.700Z,6.52
2023-11-21T23:14:49.239Z,6.48
2023-11-21T23:17:15.774Z,6.44
2023-11-21T23:19:48.435Z,6.34
2023-11-21T23:22:17.765Z,6.30
2023-11-21T23:24:44.193Z,6.31
2023-11-21T23:27:10.686Z,6.03
2023-11-21T23:29:39.820Z,5.83
2023-11-21T23:32:07.085Z,5.96
2023-11-21T23:34:33.559Z,6.04
2023-11-21T23:37:00.044Z,6.06
2023-11-21T23:39:26.492Z,5.95
2023-11-21T23:41:52.943Z,5.87
2023-11-21T23:44:20.054Z,5.82
2023-11-21T23:46:46.646Z,5.76
2023-11-21T23:49:13.173Z,5.88
2023-11-21T23:51:39.998Z,5.95
2023-11-21T23:54:06.867Z,5.97
2023-11-21T23:56:33.339Z,5.84
2023-11-21T23:58:59.852Z,5.81
